createdAt,value
2019-02-16T00:00:13.413Z,1.80
2019-02-16T00:01:13.654Z,1.79
2019-02-16T00:03:17.831Z,1.70
2019-02-16T00:04:18.064Z,1.79
2019-02-16T00:06:23.227Z,1.73
2019-02-16T00:07:23.463Z,1.79
2019-02-16T00:09:27.631Z,1.66
2019-02-16T00:10:27.891Z,1.72
2019-02-16T00:12:32.019Z,1.65
2019-02-16T00:13:32.258Z,1.65
2019-02-16T00:15:36.426Z,1.69
2019-02-16T00:16:36.658Z,1.73
2019-02-16T00:18:40.821Z,1.87
2019-02-16T00:19:41.055Z,1.88
2019-02-16T00:21:45.206Z,1.86
2019-02-16T00:22:45.446Z,1.80
2019-02-16T00:24:49.609Z,1.73
2019-02-16T00:25:49.844Z,1.81
2019-02-16T00:27:42.921Z,1.80
2019-02-16T00:28:43.158Z,1.70
2019-02-16T00:30:47.334Z,1.68
2019-02-16T00:31:47.569Z,1.52
2019-02-16T00:33:51.735Z,1.32
2019-02-16T00:34:51.976Z,1.23
2019-02-16T00:36:56.127Z,1.52
2019-02-16T00:37:56.352Z,1.59
2019-02-16T00:40:00.530Z,1.77
2019-02-16T00:41:00.768Z,1.80
2019-02-16T00:43:04.919Z,2.03
2019-02-16T00:44:05.153Z,2.12
2019-02-16T00:46:09.324Z,2.28
2019-02-16T00:47:09.560Z,2.18
2019-02-16T00:49:13.736Z,2.07
2019-02-16T00:50:13.960Z,2.02
2019-02-16T00:52:18.103Z,1.86
2019-02-16T00:53:18.349Z,1.76
2019-02-16T00:55:22.521Z,1.72
2019-02-16T00:56:22.759Z,1.47
2019-02-16T00:58:26.908Z,1.42
2019-02-16T00:59:28.028Z,1.48
2019-02-16T01:01:31.314Z,1.42
2019-02-16T01:02:31.548Z,1.37
2019-02-16T01:04:35.736Z,1.42
2019-02-16T01:05:35.965Z,1.51
2019-02-16T01:07:29.047Z,1.77
2019-02-16T01:08:29.278Z,1.88
2019-02-16T01:10:33.439Z,2.14
2019-02-16T01:11:33.669Z,2.31
2019-02-16T01:13:37.820Z,2.00
2019-02-16T01:14:38.048Z,1.66
2019-02-16T01:16:42.227Z,1.47
2019-02-16T01:17:42.455Z,1.65
2019-02-16T01:19:46.618Z,1.88
2019-02-16T01:20:46.853Z,1.98
2019-02-16T01:22:52.041Z,2.03
2019-02-16T01:23:52.277Z,2.12
2019-02-16T01:25:56.439Z,2.17
2019-02-16T01:26:56.671Z,2.12
2019-02-16T01:29:00.819Z,1.93
2019-02-16T01:30:01.051Z,1.84
2019-02-16T01:32:05.222Z,1.76
2019-02-16T01:33:05.460Z,1.65
2019-02-16T01:35:09.625Z,1.65
2019-02-16T01:36:09.859Z,1.66
2019-02-16T01:38:14.004Z,1.76
2019-02-16T01:39:14.240Z,1.76
2019-02-16T01:41:18.406Z,1.69
2019-02-16T01:42:18.647Z,1.76
2019-02-16T01:44:22.789Z,2.00
2019-02-16T01:45:23.018Z,1.93
2019-02-16T01:47:27.384Z,1.81
2019-02-16T01:48:27.616Z,1.80
2019-02-16T01:50:31.796Z,1.76
2019-02-16T01:51:32.357Z,1.77
2019-02-16T01:53:36.180Z,2.07
2019-02-16T01:54:36.413Z,2.17
2019-02-16T01:56:40.583Z,2.30
2019-02-16T01:57:40.821Z,2.28
2019-02-16T01:59:44.959Z,2.59
2019-02-16T02:00:45.193Z,2.57
2019-02-16T02:02:49.360Z,2.42
2019-02-16T02:03:49.600Z,2.41
2019-02-16T02:05:53.767Z,2.16
2019-02-16T02:06:54.010Z,2.20
2019-02-16T02:08:58.147Z,2.18
2019-02-16T02:09:58.383Z,2.05
2019-02-16T02:12:02.548Z,2.05
2019-02-16T02:13:02.783Z,2.05
2019-02-16T02:15:06.932Z,2.05
2019-02-16T02:16:07.165Z,2.02
2019-02-16T02:18:11.332Z,1.77
2019-02-16T02:19:11.564Z,1.69
2019-02-16T02:21:15.731Z,0.60
2019-02-16T02:22:15.964Z,0.20
2019-02-16T02:24:20.114Z,0.20
2019-02-16T02:25:20.346Z,0.15
2019-02-16T02:27:13.442Z,0.36
2019-02-16T02:28:13.677Z,0.26
2019-02-16T02:30:17.829Z,0.50
2019-02-16T02:31:18.065Z,0.41
2019-02-16T02:33:22.224Z,0.65
2019-02-16T02:34:22.454Z,0.47
2019-02-16T02:36:26.637Z,0.55
2019-02-16T02:37:26.874Z,0.97
2019-02-16T02:39:31.028Z,1.05
2019-02-16T02:40:31.250Z,1.08
2019-02-16T02:42:35.419Z,1.06
2019-02-16T02:43:35.649Z,1.11
2019-02-16T02:45:39.802Z,1.30
2019-02-16T02:46:40.025Z,1.29
2019-02-16T02:48:44.199Z,1.32
2019-02-16T02:49:44.434Z,1.40
2019-02-16T02:51:52.326Z,1.36
2019-02-16T02:52:48.825Z,1.33
2019-02-16T02:54:52.972Z,1.23
2019-02-16T02:55:53.207Z,1.24
2019-02-16T02:57:46.300Z,1.23
2019-02-16T02:58:46.533Z,1.20
2019-02-16T03:00:39.613Z,1.14
2019-02-16T03:01:39.850Z,1.18
2019-02-16T03:03:44.014Z,1.06
2019-02-16T03:04:44.247Z,0.93
2019-02-16T03:06:48.391Z,0.76
2019-02-16T03:07:48.621Z,0.84
2019-02-16T03:09:52.794Z,0.76
2019-02-16T03:10:53.042Z,0.61
2019-02-16T03:12:57.206Z,0.49
2019-02-16T03:13:57.427Z,0.46
2019-02-16T03:16:01.575Z,0.31
2019-02-16T03:17:01.809Z,0.10
2019-02-16T03:19:05.987Z,-0.03
2019-02-16T03:20:06.207Z,-0.14
2019-02-16T03:22:10.346Z,0.03
2019-02-16T03:23:10.631Z,0.02
2019-02-16T03:25:14.761Z,-0.01
2019-02-16T03:26:14.998Z,0.02
2019-02-16T03:28:19.177Z,0.23
2019-02-16T03:29:19.411Z,0.10
2019-02-16T03:31:23.562Z,-0.01
2019-02-16T03:32:23.801Z,-0.01
2019-02-16T03:34:27.971Z,-0.03
2019-02-16T03:35:28.205Z,-0.10
2019-02-16T03:37:21.287Z,-0.04
2019-02-16T03:38:21.522Z,0.00
2019-02-16T03:40:25.701Z,0.87
2019-02-16T03:41:25.927Z,0.94
2019-02-16T03:43:30.095Z,2.64
2019-02-16T03:44:30.334Z,2.64
2019-02-16T03:46:34.493Z,2.39
2019-02-16T03:47:34.737Z,2.17
2019-02-16T03:49:38.897Z,1.88
2019-02-16T03:50:39.134Z,1.86
2019-02-16T03:52:43.289Z,1.34
2019-02-16T03:53:43.523Z,1.09
2019-02-16T03:55:47.698Z,0.91
2019-02-16T03:56:47.937Z,0.79
2019-02-16T03:58:52.109Z,0.87
2019-02-16T03:59:52.343Z,0.84
2019-02-16T04:01:56.496Z,0.93
2019-02-16T04:02:56.744Z,0.94
2019-02-16T04:05:00.890Z,0.94
2019-02-16T04:06:01.132Z,0.91
2019-02-16T04:07:54.196Z,0.94
2019-02-16T04:08:54.427Z,0.93
2019-02-16T04:10:58.596Z,1.18
2019-02-16T04:11:58.831Z,1.18
2019-02-16T04:14:02.976Z,1.44
2019-02-16T04:15:03.204Z,1.86
2019-02-16T04:17:07.367Z,2.30
2019-02-16T04:18:07.599Z,2.16
2019-02-16T04:20:11.767Z,1.84
2019-02-16T04:21:12.002Z,1.68
2019-02-16T04:23:16.154Z,1.65
2019-02-16T04:24:16.381Z,1.34
2019-02-16T04:26:21.561Z,0.91
2019-02-16T04:27:21.792Z,0.73
2019-02-16T04:29:26.977Z,0.62
2019-02-16T04:30:27.208Z,0.80
2019-02-16T04:32:31.361Z,0.83
2019-02-16T04:33:31.593Z,0.66
2019-02-16T04:35:35.757Z,0.98
2019-02-16T04:36:35.991Z,0.88
2019-02-16T04:38:40.138Z,0.98
2019-02-16T04:39:40.371Z,1.00
2019-02-16T04:41:44.535Z,1.15
2019-02-16T04:42:44.769Z,1.16
2019-02-16T04:44:48.939Z,1.06
2019-02-16T04:45:49.170Z,0.97
2019-02-16T04:47:42.246Z,1.23
2019-02-16T04:48:42.481Z,1.34
2019-02-16T04:50:46.646Z,1.29
2019-02-16T04:51:46.880Z,1.22
2019-02-16T04:53:51.043Z,0.72
2019-02-16T04:54:51.261Z,0.47
2019-02-16T04:56:55.436Z,0.44
2019-02-16T04:57:55.669Z,0.39
2019-02-16T04:59:59.839Z,0.44
2019-02-16T05:01:00.081Z,0.50
2019-02-16T05:03:04.215Z,0.39
2019-02-16T05:04:04.448Z,0.38
2019-02-16T05:06:08.613Z,0.35
2019-02-16T05:07:08.843Z,0.32
2019-02-16T05:09:12.989Z,0.07
2019-02-16T05:10:13.224Z,0.08
2019-02-16T05:12:17.395Z,-0.14
2019-02-16T05:13:17.621Z,-0.40
2019-02-16T05:15:21.788Z,-0.43
2019-02-16T05:16:22.021Z,-0.40
2019-02-16T05:18:26.164Z,-0.52
2019-02-16T05:19:26.397Z,-0.55
2019-02-16T05:21:30.564Z,-0.57
2019-02-16T05:22:30.796Z,-0.58
2019-02-16T05:24:34.943Z,-0.60
2019-02-16T05:25:35.172Z,-0.65
2019-02-16T05:27:28.273Z,-0.55
2019-02-16T05:28:28.521Z,-0.62
2019-02-16T05:30:32.685Z,-0.67
2019-02-16T05:31:32.976Z,-0.58
2019-02-16T05:33:37.092Z,-0.49
2019-02-16T05:34:37.330Z,-0.36
2019-02-16T05:36:41.496Z,-0.23
2019-02-16T05:37:41.728Z,-0.28
2019-02-16T05:39:45.877Z,-0.23
2019-02-16T05:40:46.118Z,-0.28
2019-02-16T05:42:50.288Z,-0.25
2019-02-16T05:43:50.522Z,-0.34
2019-02-16T05:45:54.698Z,-0.31
2019-02-16T05:46:54.944Z,-0.08
2019-02-16T05:48:59.085Z,-0.10
2019-02-16T05:49:59.318Z,-0.16
2019-02-16T05:52:03.495Z,-0.18
2019-02-16T05:53:03.730Z,-0.16
2019-02-16T05:55:07.887Z,-0.19
2019-02-16T05:56:08.124Z,-0.26
2019-02-16T05:58:12.312Z,-0.36
2019-02-16T05:59:12.540Z,-0.19
2019-02-16T06:01:16.720Z,-0.22
2019-02-16T06:02:16.941Z,-0.07
2019-02-16T06:04:21.088Z,0.10
2019-02-16T06:05:21.333Z,0.18
2019-02-16T06:07:14.426Z,0.26
2019-02-16T06:08:14.675Z,0.26
2019-02-16T06:10:18.811Z,0.17
2019-02-16T06:11:19.047Z,0.21
2019-02-16T06:13:23.230Z,0.68
2019-02-16T06:14:23.465Z,0.86
2019-02-16T06:16:27.642Z,0.96
2019-02-16T06:17:27.869Z,0.96
2019-02-16T06:19:33.030Z,1.06
2019-02-16T06:20:33.257Z,0.93
2019-02-16T06:22:37.421Z,1.00
2019-02-16T06:23:37.651Z,1.18
2019-02-16T06:25:41.796Z,1.05
2019-02-16T06:26:42.022Z,1.08
2019-02-16T06:28:46.195Z,0.97
2019-02-16T06:29:46.428Z,0.84
2019-02-16T06:31:50.591Z,0.66
2019-02-16T06:32:50.824Z,0.46
2019-02-16T06:34:55.981Z,0.17
2019-02-16T06:35:56.214Z,0.03
2019-02-16T06:37:50.325Z,-0.05
2019-02-16T06:38:50.559Z,-0.04
2019-02-16T06:40:54.702Z,-0.08
2019-02-16T06:41:54.932Z,0.03
2019-02-16T06:43:59.097Z,0.14
2019-02-16T06:44:59.338Z,0.21
2019-02-16T06:47:03.488Z,0.80
2019-02-16T06:48:03.725Z,1.23
2019-02-16T06:50:07.892Z,2.57
2019-02-16T06:51:08.124Z,3.03
2019-02-16T06:53:13.559Z,3.36
2019-02-16T06:54:12.529Z,3.48
2019-02-16T06:56:16.673Z,3.73
2019-02-16T06:57:16.910Z,3.33
2019-02-16T06:59:21.085Z,2.48
2019-02-16T07:00:21.313Z,2.18
2019-02-16T07:02:25.461Z,2.03
2019-02-16T07:03:25.700Z,1.90
2019-02-16T07:05:29.872Z,1.79
2019-02-16T07:06:30.138Z,1.99
2019-02-16T07:08:34.272Z,2.12
2019-02-16T07:09:34.506Z,2.38
2019-02-16T07:11:38.650Z,2.95
2019-02-16T07:12:38.881Z,3.23
2019-02-16T07:14:43.041Z,3.96
2019-02-16T07:15:43.275Z,4.27
2019-02-16T07:17:36.366Z,6.46
2019-02-16T07:18:36.578Z,7.28
2019-02-16T07:20:40.751Z,7.95
2019-02-16T07:21:40.980Z,7.95
2019-02-16T07:23:45.158Z,8.43
2019-02-16T07:24:45.466Z,8.87
2019-02-16T07:26:49.623Z,9.26
2019-02-16T07:27:49.853Z,9.57
2019-02-16T07:29:54.024Z,9.69
2019-02-16T07:30:54.262Z,9.47
2019-02-16T07:32:58.418Z,7.55
2019-02-16T07:33:58.661Z,6.04
2019-02-16T07:36:02.835Z,4.24
2019-02-16T07:37:03.071Z,3.84
2019-02-16T07:39:07.249Z,3.93
2019-02-16T07:40:07.491Z,4.37
2019-02-16T07:42:11.642Z,4.99
2019-02-16T07:43:11.881Z,5.25
2019-02-16T07:45:16.052Z,5.75
2019-02-16T07:46:16.354Z,6.48
2019-02-16T07:48:20.499Z,8.44
2019-02-16T07:49:20.737Z,9.01
2019-02-16T07:51:24.908Z,10.68
2019-02-16T07:52:25.147Z,11.28
2019-02-16T07:54:29.322Z,12.34
2019-02-16T07:55:29.562Z,12.62
2019-02-16T07:57:22.644Z,13.28
2019-02-16T07:58:22.884Z,13.51
2019-02-16T08:00:27.059Z,13.99
2019-02-16T08:01:27.299Z,14.29
2019-02-16T08:03:31.516Z,14.89
2019-02-16T08:04:31.763Z,15.11
2019-02-16T08:06:35.942Z,15.29
2019-02-16T08:07:36.183Z,15.38
2019-02-16T08:09:40.364Z,15.27
2019-02-16T08:10:40.607Z,15.44
2019-02-16T08:12:44.774Z,15.80
2019-02-16T08:13:45.016Z,15.94
2019-02-16T08:15:49.200Z,16.33
2019-02-16T08:16:49.444Z,16.71
2019-02-16T08:18:53.607Z,17.54
2019-02-16T08:19:53.853Z,17.58
2019-02-16T08:21:58.043Z,16.66
2019-02-16T08:22:58.292Z,16.34
2019-02-16T08:25:02.483Z,16.61
2019-02-16T08:26:02.739Z,16.43
2019-02-16T08:27:55.825Z,17.97
2019-02-16T08:28:56.074Z,18.29
2019-02-16T08:31:00.264Z,18.82
2019-02-16T08:32:00.518Z,18.45
2019-02-16T08:34:04.689Z,18.48
2019-02-16T08:35:04.935Z,19.08
2019-02-16T08:37:09.130Z,19.02
2019-02-16T08:38:09.376Z,18.55
2019-02-16T08:40:13.568Z,18.27
2019-02-16T08:41:13.818Z,18.45
2019-02-16T08:43:17.988Z,18.66
2019-02-16T08:44:18.238Z,18.78
2019-02-16T08:46:22.431Z,19.13
2019-02-16T08:47:22.680Z,19.33
2019-02-16T08:49:26.850Z,19.88
2019-02-16T08:50:27.103Z,19.80
2019-02-16T08:52:31.293Z,19.54
2019-02-16T08:53:31.545Z,19.76
2019-02-16T08:55:35.744Z,19.33
2019-02-16T08:56:35.991Z,18.45
2019-02-16T08:58:40.166Z,14.61
2019-02-16T08:59:40.417Z,13.75
2019-02-16T09:01:44.619Z,13.28
2019-02-16T09:02:44.870Z,12.46
2019-02-16T09:04:49.053Z,12.71
2019-02-16T09:05:49.297Z,13.08
2019-02-16T09:07:42.421Z,12.29
2019-02-16T09:08:42.671Z,11.94
2019-02-16T09:10:46.868Z,11.46
2019-02-16T09:11:47.121Z,12.02
2019-02-16T09:13:51.288Z,11.19
2019-02-16T09:14:51.539Z,11.51
2019-02-16T09:16:56.742Z,11.90
2019-02-16T09:17:56.995Z,12.38
2019-02-16T09:20:02.177Z,12.68
2019-02-16T09:21:02.427Z,13.20
2019-02-16T09:23:06.617Z,14.24
2019-02-16T09:24:06.869Z,16.04
2019-02-16T09:26:11.035Z,18.15
2019-02-16T09:27:11.286Z,19.26
2019-02-16T09:29:15.479Z,17.08
2019-02-16T09:30:15.729Z,16.27
2019-02-16T09:32:19.928Z,15.76
2019-02-16T09:33:20.176Z,15.29
2019-02-16T09:35:24.348Z,14.69
2019-02-16T09:36:24.598Z,14.54
2019-02-16T09:38:28.796Z,15.31
2019-02-16T09:39:29.046Z,14.47
2019-02-16T09:41:33.232Z,14.12
2019-02-16T09:42:33.479Z,14.03
2019-02-16T09:44:37.677Z,14.70
2019-02-16T09:45:37.926Z,16.25
2019-02-16T09:47:31.050Z,18.03
2019-02-16T09:48:31.298Z,19.74
2019-02-16T09:50:35.471Z,20.67
2019-02-16T09:51:35.721Z,19.66
2019-02-16T09:53:39.917Z,21.09
2019-02-16T09:54:40.171Z,21.90
2019-02-16T09:56:44.343Z,22.51
2019-02-16T09:57:44.597Z,21.01
2019-02-16T09:59:48.795Z,22.46
2019-02-16T10:00:49.050Z,23.15
2019-02-16T10:02:53.252Z,23.63
2019-02-16T10:03:53.506Z,23.65
2019-02-16T10:05:57.689Z,23.17
2019-02-16T10:06:57.938Z,22.67
2019-02-16T10:09:02.140Z,23.00
2019-02-16T10:10:02.393Z,23.47
2019-02-16T10:12:06.572Z,23.66
2019-02-16T10:13:06.828Z,23.12
2019-02-16T10:15:11.033Z,23.05
2019-02-16T10:16:11.288Z,22.68
2019-02-16T10:18:15.492Z,22.57
2019-02-16T10:19:15.750Z,22.51
2019-02-16T10:21:19.928Z,22.42
2019-02-16T10:22:20.184Z,23.01
2019-02-16T10:24:24.385Z,23.46
2019-02-16T10:25:24.638Z,22.85
2019-02-16T10:27:17.749Z,22.76
2019-02-16T10:28:18.004Z,23.10
2019-02-16T10:30:22.207Z,23.19
2019-02-16T10:31:22.460Z,23.23
2019-02-16T10:33:26.665Z,22.92
2019-02-16T10:34:26.918Z,23.16
2019-02-16T10:36:31.102Z,22.76
2019-02-16T10:37:31.358Z,23.02
2019-02-16T10:39:35.556Z,23.95
2019-02-16T10:40:35.812Z,23.46
2019-02-16T10:42:39.995Z,22.54
2019-02-16T10:43:40.252Z,22.91
2019-02-16T10:45:44.454Z,22.22
2019-02-16T10:46:44.709Z,22.07
2019-02-16T10:48:48.914Z,21.31
2019-02-16T10:49:49.170Z,21.69
2019-02-16T10:51:53.348Z,22.47
2019-02-16T10:52:53.615Z,22.73
2019-02-16T10:54:57.805Z,22.43
2019-02-16T10:55:58.060Z,22.12
2019-02-16T10:57:51.169Z,23.23
2019-02-16T10:58:51.431Z,23.31
2019-02-16T11:00:55.623Z,23.22
2019-02-16T11:01:55.875Z,23.15
2019-02-16T11:04:00.082Z,24.10
2019-02-16T11:05:00.335Z,24.21
2019-02-16T11:07:04.514Z,23.65
2019-02-16T11:08:04.772Z,24.10
2019-02-16T11:10:08.979Z,24.02
2019-02-16T11:11:09.235Z,24.34
2019-02-16T11:13:13.410Z,26.07
2019-02-16T11:14:13.668Z,26.95
2019-02-16T11:16:17.870Z,27.36
2019-02-16T11:17:18.127Z,27.63
2019-02-16T11:19:22.333Z,27.07
2019-02-16T11:20:22.588Z,27.21
2019-02-16T11:22:26.771Z,27.24
2019-02-16T11:23:27.026Z,27.27
2019-02-16T11:25:31.230Z,26.05
2019-02-16T11:26:31.486Z,26.70
2019-02-16T11:28:35.673Z,25.36
2019-02-16T11:29:35.931Z,26.10
2019-02-16T11:31:40.138Z,26.15
2019-02-16T11:32:40.399Z,26.39
2019-02-16T11:34:44.606Z,27.39
2019-02-16T11:35:44.866Z,27.39
2019-02-16T11:37:37.977Z,27.59
2019-02-16T11:38:38.239Z,28.21
2019-02-16T11:40:42.444Z,26.67
2019-02-16T11:41:42.703Z,26.62
2019-02-16T11:43:46.887Z,24.87
2019-02-16T11:44:47.190Z,25.03
2019-02-16T11:46:51.482Z,24.31
2019-02-16T11:47:51.737Z,24.03
2019-02-16T11:49:55.954Z,24.77
2019-02-16T11:50:56.253Z,25.08
2019-02-16T11:53:00.443Z,24.87
2019-02-16T11:54:00.700Z,25.87
2019-02-16T11:56:04.986Z,24.99
2019-02-16T11:57:05.240Z,24.43
2019-02-16T11:59:09.430Z,24.39
2019-02-16T12:00:09.683Z,23.95
2019-02-16T12:02:13.894Z,24.60
2019-02-16T12:03:14.152Z,24.87
2019-02-16T12:05:18.358Z,26.32
2019-02-16T12:06:18.667Z,26.65
2019-02-16T12:08:22.876Z,26.99
2019-02-16T12:09:23.123Z,26.51
2019-02-16T12:11:27.386Z,27.66
2019-02-16T12:12:27.713Z,28.18
2019-02-16T12:14:31.900Z,27.04
2019-02-16T12:15:32.157Z,25.87
2019-02-16T12:17:25.292Z,26.44
2019-02-16T12:18:25.548Z,26.62
2019-02-16T12:20:33.703Z,27.17
2019-02-16T12:21:30.011Z,27.34
2019-02-16T12:23:34.197Z,26.06
2019-02-16T12:24:34.455Z,25.76
2019-02-16T12:26:38.667Z,25.54
2019-02-16T12:27:38.924Z,25.28
2019-02-16T12:29:43.107Z,25.82
2019-02-16T12:30:43.364Z,26.84
2019-02-16T12:32:47.571Z,27.19
2019-02-16T12:33:47.828Z,26.07
2019-02-16T12:35:52.034Z,25.10
2019-02-16T12:36:52.290Z,26.02
2019-02-16T12:39:04.550Z,23.20
2019-02-16T12:39:57.756Z,23.55
2019-02-16T12:42:01.954Z,23.94
2019-02-16T12:43:02.214Z,23.66
2019-02-16T12:45:06.397Z,23.22
2019-02-16T12:46:06.651Z,24.13
2019-02-16T12:48:10.857Z,24.39
2019-02-16T12:49:11.110Z,24.27
2019-02-16T12:51:15.316Z,24.34
2019-02-16T12:52:15.571Z,24.09
2019-02-16T12:54:19.757Z,24.45
2019-02-16T12:55:20.015Z,23.53
2019-02-16T12:57:13.149Z,24.32
2019-02-16T12:58:13.406Z,22.98
2019-02-16T13:00:17.589Z,24.20
2019-02-16T13:01:17.843Z,24.49
2019-02-16T13:03:22.049Z,24.91
2019-02-16T13:04:22.303Z,24.96
2019-02-16T13:06:26.489Z,24.99
2019-02-16T13:07:26.750Z,25.40
2019-02-16T13:09:30.957Z,25.30
2019-02-16T13:10:31.220Z,24.93
2019-02-16T13:12:35.453Z,24.46
2019-02-16T13:13:35.788Z,24.98
2019-02-16T13:15:39.978Z,25.27
2019-02-16T13:16:40.238Z,25.35
2019-02-16T13:18:44.451Z,25.92
2019-02-16T13:19:44.703Z,26.25
2019-02-16T13:21:48.886Z,26.94
2019-02-16T13:22:49.221Z,26.37
2019-02-16T13:24:53.437Z,24.95
2019-02-16T13:25:53.691Z,24.78
2019-02-16T13:27:46.826Z,25.09
2019-02-16T13:28:47.086Z,24.91
2019-02-16T13:30:51.292Z,24.35
2019-02-16T13:31:51.601Z,24.71
2019-02-16T13:33:55.907Z,24.90
2019-02-16T13:34:56.217Z,24.76
2019-02-16T13:37:00.423Z,24.13
2019-02-16T13:38:00.678Z,24.34
2019-02-16T13:40:04.929Z,23.15
2019-02-16T13:41:05.215Z,22.80
2019-02-16T13:43:09.480Z,24.05
2019-02-16T13:44:09.782Z,24.09
2019-02-16T13:46:13.984Z,24.20
2019-02-16T13:47:14.247Z,24.46
2019-02-16T13:49:18.440Z,25.09
2019-02-16T13:50:20.246Z,25.39
2019-02-16T13:52:22.914Z,25.73
2019-02-16T13:53:23.208Z,24.73
2019-02-16T13:55:33.285Z,24.16
2019-02-16T13:56:27.714Z,24.37
2019-02-16T13:58:31.921Z,23.63
2019-02-16T13:59:32.176Z,24.28
2019-02-16T14:01:36.373Z,25.00
2019-02-16T14:02:36.627Z,24.43
2019-02-16T14:04:40.829Z,24.18
2019-02-16T14:05:41.088Z,24.37
2019-02-16T14:07:34.215Z,23.87
2019-02-16T14:08:34.506Z,23.66
2019-02-16T14:10:38.710Z,24.10
2019-02-16T14:11:39.002Z,23.93
2019-02-16T14:13:43.218Z,23.94
2019-02-16T14:14:43.585Z,24.43
2019-02-16T14:16:47.768Z,24.30
2019-02-16T14:17:48.094Z,24.64
2019-02-16T14:19:52.424Z,24.25
2019-02-16T14:20:52.704Z,24.42
2019-02-16T14:22:56.890Z,24.28
2019-02-16T14:23:57.175Z,24.09
2019-02-16T14:26:01.378Z,24.52
2019-02-16T14:27:01.633Z,24.53
2019-02-16T14:29:05.897Z,24.27
2019-02-16T14:30:06.193Z,23.98
2019-02-16T14:32:10.373Z,22.75
2019-02-16T14:33:10.625Z,22.22
2019-02-16T14:35:14.825Z,22.21
2019-02-16T14:36:15.078Z,22.60
2019-02-16T14:38:19.764Z,22.37
2019-02-16T14:39:19.513Z,22.33
2019-02-16T14:41:23.713Z,22.79
2019-02-16T14:42:23.968Z,22.57
2019-02-16T14:44:28.208Z,22.90
2019-02-16T14:45:28.430Z,23.01
2019-02-16T14:47:21.540Z,22.36
2019-02-16T14:48:21.790Z,22.24
2019-02-16T14:50:25.991Z,21.79
2019-02-16T14:51:26.246Z,21.75
2019-02-16T14:53:30.426Z,22.05
2019-02-16T14:54:30.680Z,21.68
2019-02-16T14:56:34.874Z,21.71
2019-02-16T14:57:35.128Z,21.79
2019-02-16T14:59:39.330Z,22.58
2019-02-16T15:00:39.582Z,21.92
2019-02-16T15:02:43.764Z,22.25
2019-02-16T15:03:44.013Z,22.42
2019-02-16T15:05:48.215Z,21.62
2019-02-16T15:06:48.464Z,21.47
2019-02-16T15:08:52.644Z,21.49
2019-02-16T15:09:52.895Z,20.92
2019-02-16T15:11:57.098Z,21.29
2019-02-16T15:12:57.352Z,21.53
2019-02-16T15:15:01.564Z,20.98
2019-02-16T15:16:01.812Z,21.28
2019-02-16T15:17:55.952Z,21.09
2019-02-16T15:18:56.203Z,20.52
2019-02-16T15:21:00.403Z,21.13
2019-02-16T15:22:00.657Z,20.99
2019-02-16T15:24:04.833Z,20.41
2019-02-16T15:25:05.090Z,20.33
2019-02-16T15:27:09.285Z,20.28
2019-02-16T15:28:09.538Z,19.84
2019-02-16T15:30:14.507Z,19.63
2019-02-16T15:31:13.990Z,19.86
2019-02-16T15:33:18.167Z,19.48
2019-02-16T15:34:18.423Z,19.39
2019-02-16T15:36:24.223Z,18.78
2019-02-16T15:37:22.865Z,18.95
2019-02-16T15:39:27.046Z,19.07
2019-02-16T15:40:27.299Z,18.87
2019-02-16T15:42:31.498Z,18.75
2019-02-16T15:43:31.745Z,18.70
2019-02-16T15:45:35.932Z,18.65
2019-02-16T15:46:36.184Z,18.48
2019-02-16T15:48:40.353Z,17.78
2019-02-16T15:49:41.154Z,17.93
2019-02-16T15:51:44.797Z,16.33
2019-02-16T15:52:45.049Z,16.28
2019-02-16T15:54:49.222Z,16.01
2019-02-16T15:55:49.470Z,15.75
2019-02-16T15:57:42.593Z,15.56
2019-02-16T15:58:42.843Z,15.62
2019-02-16T16:00:47.066Z,15.28
2019-02-16T16:01:48.667Z,15.19
2019-02-16T16:03:51.453Z,15.01
2019-02-16T16:04:51.699Z,15.02
2019-02-16T16:06:55.890Z,14.91
2019-02-16T16:07:56.133Z,14.72
2019-02-16T16:10:00.408Z,14.55
2019-02-16T16:11:00.552Z,14.73
2019-02-16T16:13:04.734Z,15.02
2019-02-16T16:14:06.522Z,14.88
2019-02-16T16:16:09.166Z,15.03
2019-02-16T16:17:09.411Z,14.88
2019-02-16T16:19:13.577Z,14.77
2019-02-16T16:20:13.820Z,14.80
2019-02-16T16:22:18.004Z,14.60
2019-02-16T16:23:18.246Z,14.43
2019-02-16T16:25:22.413Z,14.15
2019-02-16T16:26:22.656Z,13.97
2019-02-16T16:28:26.844Z,13.66
2019-02-16T16:29:27.090Z,13.33
2019-02-16T16:31:31.264Z,13.15
2019-02-16T16:32:31.509Z,12.95
2019-02-16T16:34:35.662Z,12.79
2019-02-16T16:35:35.909Z,12.71
2019-02-16T16:37:29.015Z,12.87
2019-02-16T16:38:29.258Z,13.14
2019-02-16T16:40:33.416Z,13.78
2019-02-16T16:41:33.661Z,13.32
2019-02-16T16:43:37.853Z,12.77
2019-02-16T16:44:38.093Z,12.57
2019-02-16T16:46:42.285Z,12.27
2019-02-16T16:47:42.525Z,12.16
2019-02-16T16:49:46.685Z,12.16
2019-02-16T16:50:46.929Z,12.05
2019-02-16T16:52:51.123Z,12.02
2019-02-16T16:53:51.444Z,12.02
2019-02-16T16:55:55.529Z,11.79
2019-02-16T16:56:55.770Z,11.79
2019-02-16T16:58:59.953Z,11.15
2019-02-16T17:00:00.342Z,10.74
2019-02-16T17:02:04.370Z,10.59
2019-02-16T17:03:04.610Z,10.61
2019-02-16T17:05:08.764Z,10.60
2019-02-16T17:06:09.005Z,10.40
2019-02-16T17:08:13.189Z,10.34
2019-02-16T17:09:13.431Z,10.17
2019-02-16T17:11:17.587Z,9.94
2019-02-16T17:12:17.824Z,9.58
2019-02-16T17:14:22.002Z,9.53
2019-02-16T17:15:22.239Z,9.35
2019-02-16T17:17:15.322Z,9.24
2019-02-16T17:18:15.559Z,9.10
2019-02-16T17:20:19.735Z,9.20
2019-02-16T17:21:19.974Z,9.13
2019-02-16T17:23:24.152Z,8.95
2019-02-16T17:24:24.389Z,9.17
2019-02-16T17:26:37.298Z,8.98
2019-02-16T17:27:28.787Z,9.05
2019-02-16T17:29:33.032Z,8.99
2019-02-16T17:30:34.923Z,8.95
2019-02-16T17:32:37.489Z,8.98
2019-02-16T17:33:37.726Z,8.95
2019-02-16T17:35:42.030Z,8.94
2019-02-16T17:36:42.377Z,9.01
2019-02-16T17:38:46.534Z,9.04
2019-02-16T17:39:46.800Z,9.13
2019-02-16T17:41:51.520Z,9.32
2019-02-16T17:42:51.203Z,9.38
2019-02-16T17:44:55.372Z,9.61
2019-02-16T17:45:55.610Z,9.69
2019-02-16T17:47:48.700Z,9.84
2019-02-16T17:48:48.980Z,9.91
2019-02-16T17:50:53.169Z,9.86
2019-02-16T17:51:53.399Z,9.71
2019-02-16T17:53:57.639Z,9.69
2019-02-16T17:54:57.914Z,9.64
2019-02-16T17:57:02.104Z,9.51
2019-02-16T17:58:02.342Z,9.38
2019-02-16T18:00:06.521Z,9.23
2019-02-16T18:01:06.760Z,9.29
2019-02-16T18:03:10.910Z,9.60
2019-02-16T18:04:11.189Z,9.66
2019-02-16T18:06:15.365Z,9.72
2019-02-16T18:07:15.604Z,9.65
2019-02-16T18:09:19.775Z,9.54
2019-02-16T18:10:20.017Z,9.60
2019-02-16T18:12:24.165Z,9.60
2019-02-16T18:13:24.484Z,9.51
2019-02-16T18:15:28.653Z,9.61
2019-02-16T18:16:28.887Z,9.61
2019-02-16T18:18:33.154Z,9.50
2019-02-16T18:19:33.389Z,9.65
2019-02-16T18:21:37.562Z,9.74
2019-02-16T18:22:37.797Z,9.68
2019-02-16T18:24:42.023Z,9.47
2019-02-16T18:25:42.262Z,9.39
2019-02-16T18:27:35.387Z,9.32
2019-02-16T18:28:35.609Z,9.23
2019-02-16T18:30:39.794Z,9.18
2019-02-16T18:31:40.027Z,9.24
2019-02-16T18:33:44.257Z,9.57
2019-02-16T18:34:44.488Z,9.58
2019-02-16T18:36:48.676Z,9.65
2019-02-16T18:37:48.912Z,9.65
2019-02-16T18:39:53.083Z,9.46
2019-02-16T18:40:53.320Z,9.48
2019-02-16T18:42:57.496Z,9.64
2019-02-16T18:43:59.772Z,9.61
2019-02-16T18:46:01.904Z,9.51
2019-02-16T18:47:02.135Z,9.53
2019-02-16T18:49:06.300Z,9.38
2019-02-16T18:50:06.535Z,9.35
2019-02-16T18:52:10.796Z,9.26
2019-02-16T18:53:11.070Z,9.21
2019-02-16T18:55:15.293Z,9.38
2019-02-16T18:56:15.589Z,9.24
2019-02-16T18:58:19.776Z,9.29
2019-02-16T18:59:20.012Z,9.26
2019-02-16T19:01:24.269Z,9.18
2019-02-16T19:02:24.590Z,9.29
2019-02-16T19:04:28.783Z,9.35
2019-02-16T19:05:29.049Z,9.35
2019-02-16T19:07:22.133Z,9.26
2019-02-16T19:08:22.376Z,9.11
2019-02-16T19:10:26.535Z,8.95
2019-02-16T19:11:26.769Z,9.05
2019-02-16T19:13:30.931Z,9.02
2019-02-16T19:14:31.186Z,8.94
2019-02-16T19:16:35.429Z,8.95
2019-02-16T19:17:35.686Z,8.99
2019-02-16T19:19:39.837Z,9.02
2019-02-16T19:20:40.098Z,9.15
2019-02-16T19:22:44.272Z,9.51
2019-02-16T19:23:44.506Z,9.71
2019-02-16T19:25:48.741Z,9.69
2019-02-16T19:26:49.013Z,9.69
2019-02-16T19:28:53.185Z,9.79
2019-02-16T19:29:53.446Z,9.66
2019-02-16T19:31:57.629Z,9.74
2019-02-16T19:32:57.913Z,9.68
2019-02-16T19:35:02.067Z,9.65
2019-02-16T19:36:02.402Z,9.57
2019-02-16T19:37:55.586Z,9.38
2019-02-16T19:38:55.815Z,9.31
2019-02-16T19:40:59.981Z,9.36
2019-02-16T19:42:00.220Z,9.33
2019-02-16T19:44:04.386Z,8.95
2019-02-16T19:45:04.689Z,8.76
2019-02-16T19:47:08.789Z,8.26
2019-02-16T19:48:09.032Z,8.12
2019-02-16T19:50:13.179Z,7.86
2019-02-16T19:51:13.419Z,7.85
2019-02-16T19:53:17.588Z,7.86
2019-02-16T19:54:17.821Z,7.98
2019-02-16T19:56:22.000Z,8.00
2019-02-16T19:57:26.899Z,8.05
2019-02-16T19:59:26.388Z,7.39